sensor_id;sensor_type;location;lat;lon;timestamp;pressure;altitude;pressure_sealevel;temperature
19644;BMP180;9970;-36.854;174.870;2024-02-14T00:00:39;102125.00;;;26.60
19644;BMP180;9970;-36.854;174.870;2024-02-14T00:03:12;102115.00;;;26.60
19644;BMP180;9970;-36.854;174.870;2024-02-14T00:05:45;102118.00;;;26.60
19644;BMP180;9970;-36.854;174.870;2024-02-14T00:08:18;102129.00;;;26.70
19644;BMP180;9970;-36.854;174.870;2024-02-14T00:10:52;102128.00;;;26.80
19644;BMP180;9970;-36.854;174.870;2024-02-14T00:13:29;102127.00;;;26.80
19644;BMP180;9970;-36.854;174.870;2024-02-14T00:16:04;102125.00;;;26.80
19644;BMP180;9970;-36.854;174.870;2024-02-14T00:18:38;102128.00;;;26.80
19644;BMP180;9970;-36.854;174.870;2024-02-14T00:21:11;102121.00;;;26.80
19644;BMP180;9970;-36.854;174.870;2024-02-14T00:23:44;102122.00;;;26.90
19644;BMP180;9970;-36.854;174.870;2024-02-14T00:26:18;102120.00;;;26.90
19644;BMP180;9970;-36.854;174.870;2024-02-14T00:28:51;102126.00;;;27.00
19644;BMP180;9970;-36.854;174.870;2024-02-14T00:31:23;102131.00;;;27.00
19644;BMP180;9970;-36.854;174.870;2024-02-14T00:33:56;102122.00;;;27.00
19644;BMP180;9970;-36.854;174.870;2024-02-14T00:36:30;102126.00;;;27.00
19644;BMP180;9970;-36.854;174.870;2024-02-14T00:39:03;102128.00;;;27.00
19644;BMP180;9970;-36.854;174.870;2024-02-14T00:41:37;102111.00;;;27.00
19644;BMP180;9970;-36.854;174.870;2024-02-14T00:44:11;102116.00;;;27.00
19644;BMP180;9970;-36.854;174.870;2024-02-14T00:46:44;102114.00;;;26.90
19644;BMP180;9970;-36.854;174.870;2024-02-14T00:49:20;102110.00;;;26.90
19644;BMP180;9970;-36.854;174.870;2024-02-14T00:51:53;102112.00;;;26.90
19644;BMP180;9970;-36.854;174.870;2024-02-14T00:54:26;102109.00;;;26.90
19644;BMP180;9970;-36.854;174.870;2024-02-14T00:57:04;102107.00;;;27.00
19644;BMP180;9970;-36.854;174.870;2024-02-14T00:59:38;102102.00;;;27.00
19644;BMP180;9970;-36.854;174.870;2024-02-14T01:02:10;102101.00;;;27.00
19644;BMP180;9970;-36.854;174.870;2024-02-14T01:04:43;102107.00;;;27.00
19644;BMP180;9970;-36.854;174.870;2024-02-14T01:07:17;102103.00;;;27.00
19644;BMP180;9970;-36.854;174.870;2024-02-14T01:09:50;102097.00;;;27.00
19644;BMP180;9970;-36.854;174.870;2024-02-14T01:12:26;102093.00;;;27.00
19644;BMP180;9970;-36.854;174.870;2024-02-14T01:15:00;102096.00;;;27.00
19644;BMP180;9970;-36.854;174.870;2024-02-14T01:17:35;102102.00;;;27.00
19644;BMP180;9970;-36.854;174.870;2024-02-14T01:20:09;102084.00;;;27.10
19644;BMP180;9970;-36.854;174.870;2024-02-14T01:22:48;102088.00;;;27.10
19644;BMP180;9970;-36.854;174.870;2024-02-14T01:25:20;102089.00;;;27.10
19644;BMP180;9970;-36.854;174.870;2024-02-14T01:27:53;102083.00;;;27.20
19644;BMP180;9970;-36.854;174.870;2024-02-14T01:30:27;102077.00;;;27.10
19644;BMP180;9970;-36.854;174.870;2024-02-14T01:33:01;102078.00;;;27.10
19644;BMP180;9970;-36.854;174.870;2024-02-14T01:35:35;102069.00;;;27.10
19644;BMP180;9970;-36.854;174.870;2024-02-14T01:38:08;102074.00;;;27.20
19644;BMP180;9970;-36.854;174.870;2024-02-14T01:40:46;102067.00;;;27.20
19644;BMP180;9970;-36.854;174.870;2024-02-14T01:43:20;102065.00;;;27.20
19644;BMP180;9970;-36.854;174.870;2024-02-14T01:45:53;102066.00;;;27.20
19644;BMP180;9970;-36.854;174.870;2024-02-14T01:48:27;102067.00;;;27.20
19644;BMP180;9970;-36.854;174.870;2024-02-14T01:51:00;102060.00;;;27.20
19644;BMP180;9970;-36.854;174.870;2024-02-14T01:53:34;102063.00;;;27.10
19644;BMP180;9970;-36.854;174.870;2024-02-14T01:56:08;102060.00;;;27.10
19644;BMP180;9970;-36.854;174.870;2024-02-14T01:58:41;102059.00;;;27.10
19644;BMP180;9970;-36.854;174.870;2024-02-14T02:01:14;102063.00;;;27.10
19644;BMP180;9970;-36.854;174.870;2024-02-14T02:03:52;102057.00;;;27.10
19644;BMP180;9970;-36.854;174.870;2024-02-14T02:06:24;102048.00;;;27.10
19644;BMP180;9970;-36.854;174.870;2024-02-14T02:08:59;102057.00;;;27.10
19644;BMP180;9970;-36.854;174.870;2024-02-14T02:11:45;102053.00;;;27.10
19644;BMP180;9970;-36.854;174.870;2024-02-14T02:14:07;102050.00;;;27.00
19644;BMP180;9970;-36.854;174.870;2024-02-14T02:16:40;102045.00;;;27.00
19644;BMP180;9970;-36.854;174.870;2024-02-14T02:19:13;102040.00;;;27.10
19644;BMP180;9970;-36.854;174.870;2024-02-14T02:21:47;102035.00;;;27.10
19644;BMP180;9970;-36.854;174.870;2024-02-14T02:24:20;102030.00;;;27.10
19644;BMP180;9970;-36.854;174.870;2024-02-14T02:26:53;102021.00;;;27.00
19644;BMP180;9970;-36.854;174.870;2024-02-14T02:29:28;102023.00;;;27.00
19644;BMP180;9970;-36.854;174.870;2024-02-14T02:32:07;102018.00;;;26.90
19644;BMP180;9970;-36.854;174.870;2024-02-14T02:34:42;102009.00;;;26.90
19644;BMP180;9970;-36.854;174.870;2024-02-14T02:37:16;102015.00;;;26.90
19644;BMP180;9970;-36.854;174.870;2024-02-14T02:39:49;102003.00;;;27.00
19644;BMP180;9970;-36.854;174.870;2024-02-14T02:42:22;101998.00;;;26.90
19644;BMP180;9970;-36.854;174.870;2024-02-14T02:44:55;102005.00;;;26.90
19644;BMP180;9970;-36.854;174.870;2024-02-14T02:47:29;101996.00;;;26.90
19644;BMP180;9970;-36.854;174.870;2024-02-14T02:50:02;101998.00;;;26.80
19644;BMP180;9970;-36.854;174.870;2024-02-14T02:52:35;101994.00;;;26.80
19644;BMP180;9970;-36.854;174.870;2024-02-14T02:55:09;101986.00;;;26.80
19644;BMP180;9970;-36.854;174.870;2024-02-14T02:57:42;101990.00;;;26.80
19644;BMP180;9970;-36.854;174.870;2024-02-14T03:00:16;101992.00;;;26.70
19644;BMP180;9970;-36.854;174.870;2024-02-14T03:02:51;101981.00;;;26.70
19644;BMP180;9970;-36.854;174.870;2024-02-14T03:05:24;101982.00;;;26.70
19644;BMP180;9970;-36.854;174.870;2024-02-14T03:07:58;101977.00;;;26.60
19644;BMP180;9970;-36.854;174.870;2024-02-14T03:10:31;101979.00;;;26.60
19644;BMP180;9970;-36.854;174.870;2024-02-14T03:13:04;101968.00;;;26.50
19644;BMP180;9970;-36.854;174.870;2024-02-14T03:15:39;101972.00;;;26.50
19644;BMP180;9970;-36.854;174.870;2024-02-14T03:18:12;101972.00;;;26.50
19644;BMP180;9970;-36.854;174.870;2024-02-14T03:21:05;101967.00;;;26.40
19644;BMP180;9970;-36.854;174.870;2024-02-14T03:23:38;101965.00;;;26.40
19644;BMP180;9970;-36.854;174.870;2024-02-14T03:26:11;101965.00;;;26.30
19644;BMP180;9970;-36.854;174.870;2024-02-14T03:28:44;101968.00;;;26.30
19644;BMP180;9970;-36.854;174.870;2024-02-14T03:31:19;101962.00;;;26.30
19644;BMP180;9970;-36.854;174.870;2024-02-14T03:33:52;101959.00;;;26.20
19644;BMP180;9970;-36.854;174.870;2024-02-14T03:36:25;101965.00;;;26.20
19644;BMP180;9970;-36.854;174.870;2024-02-14T03:39:00;101968.00;;;26.20
19644;BMP180;9970;-36.854;174.870;2024-02-14T03:41:34;101969.00;;;26.20
19644;BMP180;9970;-36.854;174.870;2024-02-14T03:44:08;101968.00;;;26.20
19644;BMP180;9970;-36.854;174.870;2024-02-14T03:46:41;101965.00;;;26.20
19644;BMP180;9970;-36.854;174.870;2024-02-14T03:49:23;101965.00;;;26.10
19644;BMP180;9970;-36.854;174.870;2024-02-14T03:51:58;101955.00;;;26.10
19644;BMP180;9970;-36.854;174.870;2024-02-14T03:54:32;101959.00;;;26.00
19644;BMP180;9970;-36.854;174.870;2024-02-14T03:57:06;101957.00;;;26.00
19644;BMP180;9970;-36.854;174.870;2024-02-14T03:59:39;101957.00;;;26.00
19644;BMP180;9970;-36.854;174.870;2024-02-14T04:02:13;101956.00;;;26.00
19644;BMP180;9970;-36.854;174.870;2024-02-14T04:04:46;101961.00;;;25.90
19644;BMP180;9970;-36.854;174.870;2024-02-14T04:07:19;101946.00;;;25.90
19644;BMP180;9970;-36.854;174.870;2024-02-14T04:09:57;101947.00;;;25.90
19644;BMP180;9970;-36.854;174.870;2024-02-14T04:12:34;101943.00;;;25.90
19644;BMP180;9970;-36.854;174.870;2024-02-14T04:15:08;101945.00;;;25.90
19644;BMP180;9970;-36.854;174.870;2024-02-14T04:17:42;101949.00;;;25.90
19644;BMP180;9970;-36.854;174.870;2024-02-14T04:20:15;101943.00;;;25.90
19644;BMP180;9970;-36.854;174.870;2024-02-14T04:22:48;101946.00;;;25.90
19644;BMP180;9970;-36.854;174.870;2024-02-14T04:25:21;101943.00;;;25.80
19644;BMP180;9970;-36.854;174.870;2024-02-14T04:27:54;101946.00;;;25.80
19644;BMP180;9970;-36.854;174.870;2024-02-14T04:30:27;101940.00;;;25.80
19644;BMP180;9970;-36.854;174.870;2024-02-14T04:33:01;101935.00;;;25.80
19644;BMP180;9970;-36.854;174.870;2024-02-14T04:35:35;101940.00;;;25.70
19644;BMP180;9970;-36.854;174.870;2024-02-14T04:38:08;101934.00;;;25.70
19644;BMP180;9970;-36.854;174.870;2024-02-14T04:40:41;101934.00;;;25.60
19644;BMP180;9970;-36.854;174.870;2024-02-14T04:43:14;101938.00;;;25.60
19644;BMP180;9970;-36.854;174.870;2024-02-14T04:45:47;101931.00;;;25.60
19644;BMP180;9970;-36.854;174.870;2024-02-14T04:48:21;101925.00;;;25.50
19644;BMP180;9970;-36.854;174.870;2024-02-14T04:50:57;101937.00;;;25.50
19644;BMP180;9970;-36.854;174.870;2024-02-14T04:53:31;101931.00;;;25.50
19644;BMP180;9970;-36.854;174.870;2024-02-14T04:56:04;101934.00;;;25.50
19644;BMP180;9970;-36.854;174.870;2024-02-14T04:58:38;101925.00;;;25.50
19644;BMP180;9970;-36.854;174.870;2024-02-14T05:01:12;101925.00;;;25.50
19644;BMP180;9970;-36.854;174.870;2024-02-14T05:03:46;101920.00;;;25.40
19644;BMP180;9970;-36.854;174.870;2024-02-14T05:06:41;101921.00;;;25.40
19644;BMP180;9970;-36.854;174.870;2024-02-14T05:09:15;101921.00;;;25.40
19644;BMP180;9970;-36.854;174.870;2024-02-14T05:11:48;101933.00;;;25.30
19644;BMP180;9970;-36.854;174.870;2024-02-14T05:14:21;101926.00;;;25.30
19644;BMP180;9970;-36.854;174.870;2024-02-14T05:16:55;101922.00;;;25.30
19644;BMP180;9970;-36.854;174.870;2024-02-14T05:19:29;101921.00;;;25.20
19644;BMP180;9970;-36.854;174.870;2024-02-14T05:22:01;101917.00;;;25.20
19644;BMP180;9970;-36.854;174.870;2024-02-14T05:24:39;101925.00;;;25.20
19644;BMP180;9970;-36.854;174.870;2024-02-14T05:27:12;101918.00;;;25.10
19644;BMP180;9970;-36.854;174.870;2024-02-14T05:29:57;101917.00;;;25.10
19644;BMP180;9970;-36.854;174.870;2024-02-14T05:32:30;101910.00;;;25.00
19644;BMP180;9970;-36.854;174.870;2024-02-14T05:35:04;101912.00;;;25.00
19644;BMP180;9970;-36.854;174.870;2024-02-14T05:37:37;101913.00;;;24.90
19644;BMP180;9970;-36.854;174.870;2024-02-14T05:40:11;101912.00;;;24.90
19644;BMP180;9970;-36.854;174.870;2024-02-14T05:42:44;101906.00;;;24.80
19644;BMP180;9970;-36.854;174.870;2024-02-14T05:45:19;101916.00;;;24.80
19644;BMP180;9970;-36.854;174.870;2024-02-14T05:47:52;101914.00;;;24.80
19644;BMP180;9970;-36.854;174.870;2024-02-14T05:50:25;101912.00;;;24.70
19644;BMP180;9970;-36.854;174.870;2024-02-14T05:52:58;101914.00;;;24.70
19644;BMP180;9970;-36.854;174.870;2024-02-14T05:55:31;101909.00;;;24.70
19644;BMP180;9970;-36.854;174.870;2024-02-14T05:58:04;101911.00;;;24.70
19644;BMP180;9970;-36.854;174.870;2024-02-14T06:00:40;101912.00;;;24.70
19644;BMP180;9970;-36.854;174.870;2024-02-14T06:03:14;101922.00;;;24.70
19644;BMP180;9970;-36.854;174.870;2024-02-14T06:05:47;101921.00;;;24.60
19644;BMP180;9970;-36.854;174.870;2024-02-14T06:08:20;101924.00;;;24.60
19644;BMP180;9970;-36.854;174.870;2024-02-14T06:10:54;101917.00;;;24.50
19644;BMP180;9970;-36.854;174.870;2024-02-14T06:13:27;101934.00;;;24.50
19644;BMP180;9970;-36.854;174.870;2024-02-14T06:16:00;101929.00;;;24.40
19644;BMP180;9970;-36.854;174.870;2024-02-14T06:18:34;101918.00;;;24.40
19644;BMP180;9970;-36.854;174.870;2024-02-14T06:21:07;101933.00;;;24.40
19644;BMP180;9970;-36.854;174.870;2024-02-14T06:23:40;101941.00;;;24.40
19644;BMP180;9970;-36.854;174.870;2024-02-14T06:26:14;101941.00;;;24.30
19644;BMP180;9970;-36.854;174.870;2024-02-14T06:28:47;101937.00;;;24.30
19644;BMP180;9970;-36.854;174.870;2024-02-14T06:31:22;101942.00;;;24.20
19644;BMP180;9970;-36.854;174.870;2024-02-14T06:33:57;101948.00;;;24.20
19644;BMP180;9970;-36.854;174.870;2024-02-14T06:36:30;101955.00;;;24.10
19644;BMP180;9970;-36.854;174.870;2024-02-14T06:39:04;101942.00;;;24.10
19644;BMP180;9970;-36.854;174.870;2024-02-14T06:41:42;101945.00;;;24.10
19644;BMP180;9970;-36.854;174.870;2024-02-14T06:44:16;101943.00;;;24.10
19644;BMP180;9970;-36.854;174.870;2024-02-14T06:46:51;101950.00;;;24.10
19644;BMP180;9970;-36.854;174.870;2024-02-14T06:49:25;101957.00;;;24.00
19644;BMP180;9970;-36.854;174.870;2024-02-14T06:51:58;101958.00;;;24.00
19644;BMP180;9970;-36.854;174.870;2024-02-14T06:54:35;101966.00;;;23.90
19644;BMP180;9970;-36.854;174.870;2024-02-14T06:57:08;101966.00;;;23.90
19644;BMP180;9970;-36.854;174.870;2024-02-14T06:59:45;101964.00;;;23.90
19644;BMP180;9970;-36.854;174.870;2024-02-14T07:02:18;101979.00;;;23.80
19644;BMP180;9970;-36.854;174.870;2024-02-14T07:04:52;101974.00;;;23.80
19644;BMP180;9970;-36.854;174.870;2024-02-14T07:07:25;101984.00;;;23.80
19644;BMP180;9970;-36.854;174.870;2024-02-14T07:09:59;101980.00;;;23.70
19644;BMP180;9970;-36.854;174.870;2024-02-14T07:12:32;101981.00;;;23.70
19644;BMP180;9970;-36.854;174.870;2024-02-14T07:15:07;101982.00;;;23.70
19644;BMP180;9970;-36.854;174.870;2024-02-14T07:17:40;101985.00;;;23.60
19644;BMP180;9970;-36.854;174.870;2024-02-14T07:20:14;101998.00;;;23.60
19644;BMP180;9970;-36.854;174.870;2024-02-14T07:22:48;101992.00;;;23.50
19644;BMP180;9970;-36.854;174.870;2024-02-14T07:25:25;101994.00;;;23.50
19644;BMP180;9970;-36.854;174.870;2024-02-14T07:28:01;101997.00;;;23.40
19644;BMP180;9970;-36.854;174.870;2024-02-14T07:30:34;102003.00;;;23.40
19644;BMP180;9970;-36.854;174.870;2024-02-14T07:33:07;102000.00;;;23.40
19644;BMP180;9970;-36.854;174.870;2024-02-14T07:35:41;102011.00;;;23.30
19644;BMP180;9970;-36.854;174.870;2024-02-14T07:38:14;102011.00;;;23.20
19644;BMP180;9970;-36.854;174.870;2024-02-14T07:40:47;102015.00;;;23.20
19644;BMP180;9970;-36.854;174.870;2024-02-14T07:43:20;102023.00;;;23.20
19644;BMP180;9970;-36.854;174.870;2024-02-14T07:45:53;102026.00;;;23.20
19644;BMP180;9970;-36.854;174.870;2024-02-14T07:48:27;102032.00;;;23.10
19644;BMP180;9970;-36.854;174.870;2024-02-14T07:51:00;102036.00;;;23.10
19644;BMP180;9970;-36.854;174.870;2024-02-14T07:53:33;102036.00;;;23.10
19644;BMP180;9970;-36.854;174.870;2024-02-14T07:56:07;102043.00;;;23.10
19644;BMP180;9970;-36.854;174.870;2024-02-14T07:58:40;102040.00;;;23.00
19644;BMP180;9970;-36.854;174.870;2024-02-14T08:01:31;102045.00;;;23.10
19644;BMP180;9970;-36.854;174.870;2024-02-14T08:04:05;102047.00;;;23.00
19644;BMP180;9970;-36.854;174.870;2024-02-14T08:06:38;102054.00;;;23.00
19644;BMP180;9970;-36.854;174.870;2024-02-14T08:09:11;102054.00;;;23.00
19644;BMP180;9970;-36.854;174.870;2024-02-14T08:11:44;102063.00;;;23.00
19644;BMP180;9970;-36.854;174.870;2024-02-14T08:14:17;102069.00;;;23.00
19644;BMP180;9970;-36.854;174.870;2024-02-14T08:16:50;102063.00;;;23.00
19644;BMP180;9970;-36.854;174.870;2024-02-14T08:19:23;102065.00;;;23.00
19644;BMP180;9970;-36.854;174.870;2024-02-14T08:21:56;102078.00;;;23.00
19644;BMP180;9970;-36.854;174.870;2024-02-14T08:24:30;102076.00;;;23.00
19644;BMP180;9970;-36.854;174.870;2024-02-14T08:27:04;102075.00;;;22.90
19644;BMP180;9970;-36.854;174.870;2024-02-14T08:29:40;102075.00;;;22.90
19644;BMP180;9970;-36.854;174.870;2024-02-14T08:32:19;102080.00;;;22.90
19644;BMP180;9970;-36.854;174.870;2024-02-14T08:34:53;102086.00;;;22.90
19644;BMP180;9970;-36.854;174.870;2024-02-14T08:37:26;102086.00;;;22.90
19644;BMP180;9970;-36.854;174.870;2024-02-14T08:39:59;102091.00;;;22.80
19644;BMP180;9970;-36.854;174.870;2024-02-14T08:42:36;102096.00;;;22.80
19644;BMP180;9970;-36.854;174.870;2024-02-14T08:45:10;102093.00;;;22.80
19644;BMP180;9970;-36.854;174.870;2024-02-14T08:47:44;102087.00;;;22.70
19644;BMP180;9970;-36.854;174.870;2024-02-14T08:50:17;102097.00;;;22.70
19644;BMP180;9970;-36.854;174.870;2024-02-14T08:52:50;102094.00;;;22.70
19644;BMP180;9970;-36.854;174.870;2024-02-14T08:55:23;102098.00;;;22.70
19644;BMP180;9970;-36.854;174.870;2024-02-14T08:57:56;102107.00;;;22.70
19644;BMP180;9970;-36.854;174.870;2024-02-14T09:00:29;102109.00;;;22.70
19644;BMP180;9970;-36.854;174.870;2024-02-14T09:03:06;102105.00;;;22.70
19644;BMP180;9970;-36.854;174.870;2024-02-14T09:05:39;102106.00;;;22.70
19644;BMP180;9970;-36.854;174.870;2024-02-14T09:08:12;102102.00;;;22.60
19644;BMP180;9970;-36.854;174.870;2024-02-14T09:10:46;102105.00;;;22.70
19644;BMP180;9970;-36.854;174.870;2024-02-14T09:13:19;102106.00;;;22.60
19644;BMP180;9970;-36.854;174.870;2024-02-14T09:15:52;102104.00;;;22.60
19644;BMP180;9970;-36.854;174.870;2024-02-14T09:18:26;102109.00;;;22.60
19644;BMP180;9970;-36.854;174.870;2024-02-14T09:20:58;102108.00;;;22.60
19644;BMP180;9970;-36.854;174.870;2024-02-14T09:23:32;102116.00;;;22.60
19644;BMP180;9970;-36.854;174.870;2024-02-14T09:26:07;102104.00;;;22.60
19644;BMP180;9970;-36.854;174.870;2024-02-14T09:28:40;102112.00;;;22.60
19644;BMP180;9970;-36.854;174.870;2024-02-14T09:31:23;102117.00;;;22.60
19644;BMP180;9970;-36.854;174.870;2024-02-14T09:34:02;102117.00;;;22.50
19644;BMP180;9970;-36.854;174.870;2024-02-14T09:36:35;102113.00;;;22.50
19644;BMP180;9970;-36.854;174.870;2024-02-14T09:39:08;102118.00;;;22.50
19644;BMP180;9970;-36.854;174.870;2024-02-14T09:41:42;102116.00;;;22.50
19644;BMP180;9970;-36.854;174.870;2024-02-14T09:44:17;102117.00;;;22.50
19644;BMP180;9970;-36.854;174.870;2024-02-14T09:46:51;102118.00;;;22.50
19644;BMP180;9970;-36.854;174.870;2024-02-14T09:49:24;102111.00;;;22.50
19644;BMP180;9970;-36.854;174.870;2024-02-14T09:51:58;102113.00;;;22.50
19644;BMP180;9970;-36.854;174.870;2024-02-14T09:54:33;102132.00;;;22.50
19644;BMP180;9970;-36.854;174.870;2024-02-14T09:57:07;102122.00;;;22.50
19644;BMP180;9970;-36.854;174.870;2024-02-14T09:59:41;102125.00;;;22.40
19644;BMP180;9970;-36.854;174.870;2024-02-14T10:02:14;102119.00;;;22.40
19644;BMP180;9970;-36.854;174.870;2024-02-14T10:04:49;102130.00;;;22.40
19644;BMP180;9970;-36.854;174.870;2024-02-14T10:07:22;102118.00;;;22.40
19644;BMP180;9970;-36.854;174.870;2024-02-14T10:10:05;102120.00;;;22.40
19644;BMP180;9970;-36.854;174.870;2024-02-14T10:12:30;102121.00;;;22.40
19644;BMP180;9970;-36.854;174.870;2024-02-14T10:15:04;102117.00;;;22.30
19644;BMP180;9970;-36.854;174.870;2024-02-14T10:17:38;102127.00;;;22.30
19644;BMP180;9970;-36.854;174.870;2024-02-14T10:20:16;102114.00;;;22.30
19644;BMP180;9970;-36.854;174.870;2024-02-14T10:22:46;102108.00;;;22.30
19644;BMP180;9970;-36.854;174.870;2024-02-14T10:25:20;102115.00;;;22.30
19644;BMP180;9970;-36.854;174.870;2024-02-14T10:27:53;102119.00;;;22.30
19644;BMP180;9970;-36.854;174.870;2024-02-14T10:30:26;102131.00;;;22.30
19644;BMP180;9970;-36.854;174.870;2024-02-14T10:32:59;102116.00;;;22.30
19644;BMP180;9970;-36.854;174.870;2024-02-14T10:35:35;102125.00;;;22.30
19644;BMP180;9970;-36.854;174.870;2024-02-14T10:38:12;102122.00;;;22.30
19644;BMP180;9970;-36.854;174.870;2024-02-14T10:40:51;102114.00;;;22.30
19644;BMP180;9970;-36.854;174.870;2024-02-14T10:43:23;102112.00;;;22.20
19644;BMP180;9970;-36.854;174.870;2024-02-14T10:45:56;102104.00;;;22.20
19644;BMP180;9970;-36.854;174.870;2024-02-14T10:48:30;102112.00;;;22.20
19644;BMP180;9970;-36.854;174.870;2024-02-14T10:51:06;102111.00;;;22.20
19644;BMP180;9970;-36.854;174.870;2024-02-14T10:53:42;102111.00;;;22.20
19644;BMP180;9970;-36.854;174.870;2024-02-14T10:56:18;102113.00;;;22.20
19644;BMP180;9970;-36.854;174.870;2024-02-14T10:59:00;102109.00;;;22.20
19644;BMP180;9970;-36.854;174.870;2024-02-14T11:01:33;102114.00;;;22.20
19644;BMP180;9970;-36.854;174.870;2024-02-14T11:04:07;102111.00;;;22.20
19644;BMP180;9970;-36.854;174.870;2024-02-14T11:06:47;102110.00;;;22.20
19644;BMP180;9970;-36.854;174.870;2024-02-14T11:09:20;102109.00;;;22.20
19644;BMP180;9970;-36.854;174.870;2024-02-14T11:11:58;102111.00;;;22.20
19644;BMP180;9970;-36.854;174.870;2024-02-14T11:14:32;102117.00;;;22.20
19644;BMP180;9970;-36.854;174.870;2024-02-14T11:17:10;102111.00;;;22.10
19644;BMP180;9970;-36.854;174.870;2024-02-14T11:19:44;102106.00;;;22.10
19644;BMP180;9970;-36.854;174.870;2024-02-14T11:22:21;102107.00;;;22.10
19644;BMP180;9970;-36.854;174.870;2024-02-14T11:24:54;102108.00;;;22.10
19644;BMP180;9970;-36.854;174.870;2024-02-14T11:27:28;102109.00;;;22.10
19644;BMP180;9970;-36.854;174.870;2024-02-14T11:30:07;102111.00;;;22.10
19644;BMP180;9970;-36.854;174.870;2024-02-14T11:32:42;102109.00;;;22.10
19644;BMP180;9970;-36.854;174.870;2024-02-14T11:35:15;102114.00;;;22.10
19644;BMP180;9970;-36.854;174.870;2024-02-14T11:37:52;102110.00;;;22.10
19644;BMP180;9970;-36.854;174.870;2024-02-14T11:40:25;102111.00;;;22.10
19644;BMP180;9970;-36.854;174.870;2024-02-14T11:42:59;102115.00;;;22.10
19644;BMP180;9970;-36.854;174.870;2024-02-14T11:45:32;102113.00;;;22.10
19644;BMP180;9970;-36.854;174.870;2024-02-14T11:48:06;102118.00;;;22.10
19644;BMP180;9970;-36.854;174.870;2024-02-14T11:50:46;102112.00;;;22.10
19644;BMP180;9970;-36.854;174.870;2024-02-14T11:53:20;102112.00;;;22.10
19644;BMP180;9970;-36.854;174.870;2024-02-14T11:55:55;102129.00;;;22.10
19644;BMP180;9970;-36.854;174.870;2024-02-14T11:58:30;102118.00;;;22.10
19644;BMP180;9970;-36.854;174.870;2024-02-14T12:01:04;102117.00;;;22.00
19644;BMP180;9970;-36.854;174.870;2024-02-14T12:03:37;102121.00;;;22.00
19644;BMP180;9970;-36.854;174.870;2024-02-14T12:06:11;102118.00;;;22.00
19644;BMP180;9970;-36.854;174.870;2024-02-14T12:08:44;102118.00;;;22.00
19644;BMP180;9970;-36.854;174.870;2024-02-14T12:11:18;102117.00;;;22.00
19644;BMP180;9970;-36.854;174.870;2024-02-14T12:13:51;102116.00;;;22.00
19644;BMP180;9970;-36.854;174.870;2024-02-14T12:16:24;102114.00;;;22.00
19644;BMP180;9970;-36.854;174.870;2024-02-14T12:19:14;102119.00;;;22.00
19644;BMP180;9970;-36.854;174.870;2024-02-14T12:21:40;102101.00;;;22.00
19644;BMP180;9970;-36.854;174.870;2024-02-14T12:24:15;102101.00;;;22.00
19644;BMP180;9970;-36.854;174.870;2024-02-14T12:26:48;102104.00;;;22.00
19644;BMP180;9970;-36.854;174.870;2024-02-14T12:29:23;102104.00;;;22.00
19644;BMP180;9970;-36.854;174.870;2024-02-14T12:32:07;102102.00;;;22.00
19644;BMP180;9970;-36.854;174.870;2024-02-14T12:34:41;102112.00;;;22.00
19644;BMP180;9970;-36.854;174.870;2024-02-14T12:37:15;102113.00;;;22.00
19644;BMP180;9970;-36.854;174.870;2024-02-14T12:39:49;102105.00;;;22.00
19644;BMP180;9970;-36.854;174.870;2024-02-14T12:42:22;102105.00;;;21.90
19644;BMP180;9970;-36.854;174.870;2024-02-14T12:44:57;102110.00;;;21.90
19644;BMP180;9970;-36.854;174.870;2024-02-14T12:47:30;102105.00;;;21.90
19644;BMP180;9970;-36.854;174.870;2024-02-14T12:50:06;102105.00;;;21.90
19644;BMP180;9970;-36.854;174.870;2024-02-14T12:52:41;102103.00;;;21.90
19644;BMP180;9970;-36.854;174.870;2024-02-14T12:55:14;102096.00;;;21.90
19644;BMP180;9970;-36.854;174.870;2024-02-14T12:57:47;102097.00;;;21.90
19644;BMP180;9970;-36.854;174.870;2024-02-14T13:00:20;102098.00;;;21.90
19644;BMP180;9970;-36.854;174.870;2024-02-14T13:02:57;102093.00;;;21.90
19644;BMP180;9970;-36.854;174.870;2024-02-14T13:05:31;102097.00;;;21.90
19644;BMP180;9970;-36.854;174.870;2024-02-14T13:08:06;102082.00;;;21.90
19644;BMP180;9970;-36.854;174.870;2024-02-14T13:10:40;102092.00;;;21.90
19644;BMP180;9970;-36.854;174.870;2024-02-14T13:13:14;102083.00;;;21.90
19644;BMP180;9970;-36.854;174.870;2024-02-14T13:15:46;102080.00;;;21.80
19644;BMP180;9970;-36.854;174.870;2024-02-14T13:18:38;102078.00;;;21.80
19644;BMP180;9970;-36.854;174.870;2024-02-14T13:21:12;102078.00;;;21.80
19644;BMP180;9970;-36.854;174.870;2024-02-14T13:23:45;102076.00;;;21.80
19644;BMP180;9970;-36.854;174.870;2024-02-14T13:26:19;102075.00;;;21.80
19644;BMP180;9970;-36.854;174.870;2024-02-14T13:28:52;102080.00;;;21.80
19644;BMP180;9970;-36.854;174.870;2024-02-14T13:31:25;102072.00;;;21.70
19644;BMP180;9970;-36.854;174.870;2024-02-14T13:33:58;102072.00;;;21.70
19644;BMP180;9970;-36.854;174.870;2024-02-14T13:36:31;102066.00;;;21.70
19644;BMP180;9970;-36.854;174.870;2024-02-14T13:39:05;102073.00;;;21.60
19644;BMP180;9970;-36.854;174.870;2024-02-14T13:44:23;102068.00;;;21.60
19644;BMP180;9970;-36.854;174.870;2024-02-14T13:46:59;102066.00;;;21.60
19644;BMP180;9970;-36.854;174.870;2024-02-14T13:49:32;102065.00;;;21.50
19644;BMP180;9970;-36.854;174.870;2024-02-14T13:52:05;102064.00;;;21.40
19644;BMP180;9970;-36.854;174.870;2024-02-14T13:54:38;102061.00;;;21.40
19644;BMP180;9970;-36.854;174.870;2024-02-14T13:57:11;102068.00;;;21.40
19644;BMP180;9970;-36.854;174.870;2024-02-14T13:59:45;102058.00;;;21.30
19644;BMP180;9970;-36.854;174.870;2024-02-14T14:02:19;102066.00;;;21.40
19644;BMP180;9970;-36.854;174.870;2024-02-14T14:04:53;102063.00;;;21.30
19644;BMP180;9970;-36.854;174.870;2024-02-14T14:07:26;102064.00;;;21.30
19644;BMP180;9970;-36.854;174.870;2024-02-14T14:10:01;102063.00;;;21.30
19644;BMP180;9970;-36.854;174.870;2024-02-14T14:12:34;102064.00;;;21.20